createdAt,value
2022-10-30T00:02:21.988Z,95.42
2022-10-30T00:04:48.329Z,96.18
2022-10-30T00:07:15.173Z,96.03
2022-10-30T00:09:41.464Z,96.37
2022-10-30T00:12:07.824Z,96.51
2022-10-30T00:14:34.639Z,97.05
2022-10-30T00:17:00.954Z,97.24
2022-10-30T00:19:27.258Z,97.47
2022-10-30T00:21:54.229Z,97.53
2022-10-30T00:24:20.536Z,97.01
2022-10-30T00:26:46.900Z,96.76
2022-10-30T00:29:13.592Z,96.48
2022-10-30T00:31:39.897Z,96.81
2022-10-30T00:34:06.205Z,96.10
2022-10-30T00:36:32.942Z,96.52
2022-10-30T00:38:59.719Z,96.41
2022-10-30T00:41:26.050Z,96.23
2022-10-30T00:43:52.968Z,96.31
2022-10-30T00:46:38.210Z,96.49
2022-10-30T00:49:04.431Z,96.63
2022-10-30T00:51:33.038Z,96.54
2022-10-30T00:54:03.448Z,96.28
2022-10-30T00:56:30.666Z,96.23
2022-10-30T00:59:01.468Z,96.08
2022-10-30T01:01:32.529Z,95.86
2022-10-30T01:04:02.429Z,95.46
2022-10-30T01:06:31.437Z,96.66
2022-10-30T01:09:00.261Z,96.36
2022-10-30T01:11:27.360Z,96.36
2022-10-30T01:13:58.599Z,96.18
2022-10-30T01:16:37.918Z,96.27
2022-10-30T01:19:04.254Z,96.17
2022-10-30T01:22:06.925Z,96.52
2022-10-30T01:25:04.837Z,95.95
2022-10-30T01:27:53.292Z,96.36
2022-10-30T01:31:03.048Z,95.66
2022-10-30T01:33:42.027Z,95.61
2022-10-30T01:36:23.563Z,96.33
2022-10-30T01:39:14.976Z,97.18
2022-10-30T01:41:41.448Z,97.52
2022-10-30T01:44:22.556Z,98.19
2022-10-30T01:47:18.662Z,98.49
2022-10-30T01:50:17.310Z,98.96
2022-10-30T01:52:58.401Z,99.04
2022-10-30T01:55:41.894Z,98.65
2022-10-30T01:58:29.278Z,98.93
2022-10-30T02:00:59.339Z,98.65
2022-10-30T02:03:27.270Z,98.32
2022-10-30T02:05:54.320Z,98.51
2022-10-30T02:08:22.221Z,97.71
2022-10-30T02:10:51.714Z,97.67
2022-10-30T02:13:18.415Z,98.03
2022-10-30T02:15:46.242Z,97.64
2022-10-30T02:18:13.062Z,97.81
2022-10-30T02:20:39.529Z,97.75
2022-10-30T02:23:06.897Z,97.15
2022-10-30T02:25:34.087Z,96.98
2022-10-30T02:28:00.455Z,97.25
2022-10-30T02:30:26.974Z,97.64
2022-10-30T02:32:53.898Z,97.05
2022-10-30T02:35:20.224Z,97.35
2022-10-30T02:37:48.849Z,97.56
2022-10-30T02:40:15.347Z,97.41
2022-10-30T02:42:41.654Z,96.38
2022-10-30T02:45:08.709Z,97.08
2022-10-30T02:47:35.511Z,96.74
2022-10-30T02:50:01.832Z,97.66
2022-10-30T02:52:28.148Z,97.69
2022-10-30T02:54:55.245Z,97.76
2022-10-30T02:57:21.550Z,98.28
2022-10-30T02:59:47.862Z,97.83
2022-10-30T03:02:14.982Z,97.88
2022-10-30T03:04:41.340Z,97.30
2022-10-30T03:07:07.668Z,98.26
2022-10-30T03:09:34.327Z,98.42
2022-10-30T03:12:00.707Z,97.66
2022-10-30T03:14:27.126Z,97.09
2022-10-30T03:16:54.065Z,97.71
2022-10-30T03:19:20.481Z,97.14
2022-10-30T03:21:47.103Z,97.52
2022-10-30T03:24:13.890Z,97.27
2022-10-30T03:26:40.617Z,97.30
2022-10-30T03:29:07.083Z,97.39
2022-10-30T03:31:33.595Z,96.92
2022-10-30T03:34:00.353Z,96.51
2022-10-30T03:36:26.818Z,96.64
2022-10-30T03:38:53.689Z,96.75
2022-10-30T03:41:20.013Z,96.44
2022-10-30T03:43:46.755Z,97.08
2022-10-30T03:46:13.447Z,97.44
2022-10-30T03:48:39.783Z,97.41
2022-10-30T03:51:06.737Z,96.49
2022-10-30T03:53:33.238Z,96.07
2022-10-30T03:56:04.794Z,95.62
2022-10-30T03:58:31.364Z,96.34
2022-10-30T04:01:03.565Z,96.94
2022-10-30T04:03:30.936Z,97.35
2022-10-30T04:05:57.386Z,97.48
2022-10-30T04:08:24.402Z,97.38
2022-10-30T04:10:50.864Z,97.30
2022-10-30T04:13:17.761Z,97.03
2022-10-30T04:15:44.588Z,96.60
2022-10-30T04:18:12.210Z,96.24
2022-10-30T04:20:38.638Z,96.56
2022-10-30T04:23:07.546Z,96.80
2022-10-30T04:25:35.075Z,96.47
2022-10-30T04:28:01.931Z,96.44
2022-10-30T04:30:29.370Z,95.87
2022-10-30T04:32:57.200Z,96.59
2022-10-30T04:35:25.821Z,96.88
2022-10-30T04:37:57.288Z,97.13
2022-10-30T04:40:25.467Z,97.15
2022-10-30T04:42:51.810Z,96.27
2022-10-30T04:45:18.690Z,96.19
2022-10-30T04:47:45.691Z,96.32
2022-10-30T04:50:12.593Z,96.42
2022-10-30T04:52:39.671Z,95.80
2022-10-30T04:55:07.100Z,95.71
2022-10-30T04:57:34.626Z,95.60
2022-10-30T05:00:00.934Z,95.90
2022-10-30T05:02:27.404Z,96.28
2022-10-30T05:04:54.438Z,95.88
2022-10-30T05:07:20.773Z,95.77
2022-10-30T05:09:47.643Z,95.55
2022-10-30T05:12:14.038Z,95.03
2022-10-30T05:14:40.358Z,95.08
2022-10-30T05:17:07.005Z,95.39
2022-10-30T05:19:33.313Z,96.37
2022-10-30T05:21:59.609Z,96.65
2022-10-30T05:24:26.362Z,97.12
2022-10-30T05:26:52.669Z,97.02
2022-10-30T05:29:18.966Z,97.43
2022-10-30T05:31:45.769Z,96.91
2022-10-30T05:34:12.101Z,96.63
2022-10-30T05:36:38.415Z,96.65
2022-10-30T05:39:05.150Z,97.01
2022-10-30T05:41:31.618Z,97.20
2022-10-30T05:43:58.801Z,96.13
2022-10-30T05:46:25.113Z,97.27
2022-10-30T05:48:51.451Z,97.26
2022-10-30T05:51:18.137Z,96.77
2022-10-30T05:53:44.454Z,96.40
2022-10-30T05:56:11.174Z,96.54
2022-10-30T05:58:37.485Z,95.89
2022-10-30T06:01:08.109Z,95.73
2022-10-30T06:03:34.893Z,96.10
2022-10-30T06:06:01.225Z,95.63
2022-10-30T06:08:27.553Z,96.10
2022-10-30T06:10:55.452Z,95.90
2022-10-30T06:13:21.780Z,96.26
2022-10-30T06:15:48.268Z,96.88
2022-10-30T06:18:15.748Z,96.66
2022-10-30T06:20:42.443Z,96.31
2022-10-30T06:23:10.804Z,96.16
2022-10-30T06:25:40.959Z,96.18
2022-10-30T06:28:09.201Z,96.65
2022-10-30T06:30:35.722Z,96.51
2022-10-30T06:33:04.205Z,95.93
2022-10-30T06:35:30.941Z,96.34
2022-10-30T06:38:00.695Z,95.99
2022-10-30T06:40:27.940Z,95.77
2022-10-30T06:42:54.696Z,96.17
2022-10-30T06:45:23.536Z,95.86
2022-10-30T06:47:50.063Z,95.20
2022-10-30T06:50:18.889Z,95.14
2022-10-30T06:52:45.977Z,95.72
2022-10-30T06:55:12.634Z,96.11
2022-10-30T06:57:39.177Z,96.36
2022-10-30T07:00:07.746Z,95.97
2022-10-30T07:02:34.631Z,95.03
2022-10-30T07:05:01.018Z,95.68
2022-10-30T07:07:27.841Z,95.56
2022-10-30T07:09:54.145Z,95.14
2022-10-30T07:12:20.502Z,95.44
2022-10-30T07:14:47.334Z,94.34
2022-10-30T07:17:13.727Z,94.65
2022-10-30T07:19:40.045Z,93.22
2022-10-30T07:22:06.734Z,93.07
2022-10-30T07:24:33.037Z,93.39
2022-10-30T07:26:59.384Z,92.75
2022-10-30T07:29:25.704Z,93.39
2022-10-30T07:32:02.334Z,91.41
2022-10-30T07:34:30.127Z,92.40
2022-10-30T07:36:56.443Z,90.58
2022-10-30T07:39:22.806Z,90.41
2022-10-30T07:41:50.782Z,91.75
2022-10-30T07:44:17.366Z,91.83
2022-10-30T07:46:43.782Z,90.40
2022-10-30T07:49:10.630Z,89.35
2022-10-30T07:51:36.950Z,90.35
2022-10-30T07:54:03.494Z,86.66
2022-10-30T07:56:30.313Z,88.52
2022-10-30T07:58:56.624Z,89.70
2022-10-30T08:01:23.102Z,91.70
2022-10-30T08:03:50.273Z,90.53
2022-10-30T08:06:18.997Z,89.87
2022-10-30T08:08:47.945Z,83.88
2022-10-30T08:11:14.622Z,86.97
2022-10-30T08:13:40.973Z,87.22
2022-10-30T08:16:07.577Z,86.87
2022-10-30T08:18:34.371Z,79.59
2022-10-30T08:21:00.673Z,82.18
2022-10-30T08:23:27.071Z,79.16
2022-10-30T08:25:56.814Z,75.51
2022-10-30T08:28:25.866Z,74.45
2022-10-30T08:30:54.675Z,78.83
2022-10-30T08:33:21.385Z,77.58
2022-10-30T08:35:50.296Z,78.43
2022-10-30T08:38:17.642Z,77.06
2022-10-30T08:40:44.484Z,77.81
2022-10-30T08:43:10.990Z,76.68
2022-10-30T08:45:37.486Z,79.92
2022-10-30T08:48:05.306Z,78.82
2022-10-30T08:50:33.529Z,78.47
2022-10-30T08:53:05.301Z,75.18
2022-10-30T08:55:32.671Z,77.59
2022-10-30T08:57:59.461Z,76.56
2022-10-30T09:00:27.218Z,76.24
2022-10-30T09:02:54.227Z,75.27
2022-10-30T09:05:20.826Z,74.19
2022-10-30T09:07:47.971Z,73.28
2022-10-30T09:10:14.785Z,73.11
2022-10-30T09:12:41.137Z,72.51
2022-10-30T09:15:08.673Z,73.09
2022-10-30T09:17:35.042Z,73.02
2022-10-30T09:20:01.509Z,70.44
2022-10-30T09:22:28.205Z,71.08
2022-10-30T09:24:54.560Z,68.84
2022-10-30T09:27:20.865Z,69.11
2022-10-30T09:29:47.598Z,70.27
2022-10-30T09:32:13.919Z,73.72
2022-10-30T09:34:40.942Z,70.72
2022-10-30T09:37:08.821Z,71.28
2022-10-30T09:39:35.160Z,73.47
2022-10-30T09:42:29.770Z,74.23
2022-10-30T09:45:30.160Z,74.80
2022-10-30T09:48:02.083Z,71.30
2022-10-30T09:50:46.982Z,71.77
2022-10-30T09:53:22.096Z,77.36
2022-10-30T09:56:08.940Z,74.63
2022-10-30T09:58:42.646Z,73.58
2022-10-30T10:01:31.443Z,77.39
2022-10-30T10:04:22.267Z,75.52
2022-10-30T10:07:00.282Z,73.65
2022-10-30T10:09:30.510Z,72.97
2022-10-30T10:12:09.118Z,70.63
2022-10-30T10:14:41.799Z,69.00
2022-10-30T10:17:13.371Z,69.13
2022-10-30T10:19:49.776Z,74.40
2022-10-30T10:22:24.947Z,74.75
2022-10-30T10:24:54.946Z,75.33
2022-10-30T10:27:33.073Z,75.84
2022-10-30T10:30:20.684Z,75.98
2022-10-30T10:33:20.586Z,78.44
2022-10-30T10:36:06.953Z,77.62
2022-10-30T10:38:47.294Z,78.20
2022-10-30T10:41:41.560Z,78.90
2022-10-30T10:44:22.974Z,78.18
2022-10-30T10:47:06.742Z,77.03
2022-10-30T10:50:07.496Z,77.10
2022-10-30T10:52:40.514Z,75.47
2022-10-30T10:55:18.836Z,75.78
2022-10-30T10:57:47.390Z,76.40
2022-10-30T11:00:19.342Z,75.38
2022-10-30T11:02:59.424Z,75.13
2022-10-30T11:05:33.672Z,74.69
2022-10-30T11:08:10.574Z,74.63
2022-10-30T11:10:36.897Z,75.54
2022-10-30T11:13:03.817Z,75.13
2022-10-30T11:15:42.724Z,75.06
2022-10-30T11:18:11.243Z,75.15
2022-10-30T11:21:00.381Z,72.70
2022-10-30T11:23:34.494Z,72.22
2022-10-30T11:26:02.232Z,71.06
2022-10-30T11:28:41.326Z,69.10
2022-10-30T11:31:35.412Z,69.18
2022-10-30T11:34:16.887Z,69.22
2022-10-30T11:36:50.723Z,68.83
2022-10-30T11:39:28.637Z,69.89
2022-10-30T11:41:59.369Z,68.69
2022-10-30T11:44:31.281Z,69.24
2022-10-30T11:46:58.313Z,68.71
2022-10-30T11:49:34.708Z,65.83
2022-10-30T11:52:01.638Z,66.22
2022-10-30T11:54:28.282Z,65.55
2022-10-30T11:56:56.614Z,65.88
2022-10-30T11:59:24.469Z,66.04
2022-10-30T12:02:19.656Z,66.36
2022-10-30T12:04:46.065Z,66.05
2022-10-30T12:07:24.778Z,66.50
2022-10-30T12:09:51.237Z,65.74
2022-10-30T12:12:26.068Z,64.75
2022-10-30T12:14:52.859Z,63.39
2022-10-30T12:17:21.658Z,63.20
2022-10-30T12:19:55.188Z,64.90
2022-10-30T12:22:33.343Z,64.70
2022-10-30T12:25:04.062Z,65.87
2022-10-30T12:27:36.207Z,63.95
2022-10-30T12:30:15.954Z,63.27
2022-10-30T12:33:20.339Z,63.20
2022-10-30T12:35:55.787Z,62.84
2022-10-30T12:38:31.151Z,61.30
2022-10-30T12:41:06.201Z,63.04
2022-10-30T12:43:36.491Z,61.61
2022-10-30T12:46:24.602Z,59.90
2022-10-30T12:49:00.705Z,61.88
2022-10-30T12:51:39.825Z,64.02
2022-10-30T12:54:15.001Z,62.47
2022-10-30T12:56:44.535Z,61.89
2022-10-30T12:59:48.247Z,60.73
2022-10-30T13:02:33.009Z,60.12
2022-10-30T13:05:26.021Z,58.86
2022-10-30T13:08:20.864Z,58.25
2022-10-30T13:10:50.828Z,57.67
2022-10-30T13:13:24.982Z,58.11
2022-10-30T13:15:53.402Z,57.79
2022-10-30T13:18:25.785Z,55.63
2022-10-30T13:21:27.377Z,52.82
2022-10-30T13:24:12.510Z,52.56
2022-10-30T13:27:09.291Z,51.90
2022-10-30T13:29:54.638Z,53.30
2022-10-30T13:32:36.341Z,52.48
2022-10-30T13:35:03.115Z,51.58
2022-10-30T13:37:34.518Z,53.42
2022-10-30T13:40:34.110Z,54.25
2022-10-30T13:43:21.095Z,55.32
2022-10-30T13:46:02.702Z,57.96
2022-10-30T13:48:58.632Z,59.49
2022-10-30T13:51:52.474Z,60.31
2022-10-30T13:54:34.127Z,60.59
2022-10-30T13:57:08.278Z,58.57
2022-10-30T13:59:44.253Z,58.45
2022-10-30T14:02:41.054Z,60.03
2022-10-30T14:05:33.981Z,61.44
2022-10-30T14:08:18.660Z,64.33
2022-10-30T14:10:57.543Z,65.40
2022-10-30T14:13:29.707Z,65.73
2022-10-30T14:16:07.159Z,66.94
2022-10-30T14:19:00.601Z,66.40
2022-10-30T14:21:38.718Z,67.61
2022-10-30T14:24:13.238Z,69.13
2022-10-30T14:26:54.861Z,73.74
2022-10-30T14:29:34.187Z,76.34
2022-10-30T14:32:01.221Z,76.34
2022-10-30T14:35:00.405Z,76.46
2022-10-30T14:37:26.881Z,76.86
2022-10-30T14:39:54.506Z,77.86
2022-10-30T14:42:32.910Z,78.60
2022-10-30T14:45:39.079Z,79.59
2022-10-30T14:48:30.886Z,78.76
2022-10-30T14:51:14.170Z,77.93
2022-10-30T14:54:14.323Z,76.19
2022-10-30T14:56:49.896Z,77.12
2022-10-30T14:59:16.724Z,78.06
2022-10-30T15:02:05.005Z,78.88
2022-10-30T15:04:37.246Z,79.39
2022-10-30T15:07:12.853Z,80.08
2022-10-30T15:10:23.557Z,78.64
2022-10-30T15:13:19.974Z,79.17
2022-10-30T15:15:58.461Z,79.51
2022-10-30T15:18:29.389Z,80.35
2022-10-30T15:21:04.866Z,81.32
2022-10-30T15:23:33.385Z,81.38
2022-10-30T15:26:08.221Z,82.41
2022-10-30T15:28:39.133Z,83.31
2022-10-30T15:31:05.492Z,83.63
2022-10-30T15:33:35.334Z,84.54
2022-10-30T15:36:02.250Z,84.55
2022-10-30T15:38:28.946Z,86.54
2022-10-30T15:41:01.014Z,87.26
2022-10-30T15:43:32.764Z,88.75
2022-10-30T15:45:59.712Z,89.59
2022-10-30T15:48:30.038Z,88.50
2022-10-30T15:51:19.964Z,87.32
2022-10-30T15:53:47.830Z,87.12
2022-10-30T15:56:23.213Z,87.64
2022-10-30T15:58:57.857Z,88.74
2022-10-30T16:01:25.724Z,88.61
2022-10-30T16:03:53.583Z,88.55
2022-10-30T16:06:23.274Z,88.57
2022-10-30T16:08:50.053Z,89.30
2022-10-30T16:11:16.721Z,88.66
2022-10-30T16:13:43.952Z,90.04
2022-10-30T16:16:16.908Z,89.36
2022-10-30T16:18:44.509Z,89.72
2022-10-30T16:21:16.259Z,90.94
2022-10-30T16:23:49.913Z,91.37
2022-10-30T16:26:27.746Z,90.98
2022-10-30T16:28:54.065Z,90.10
2022-10-30T16:31:20.724Z,90.31
2022-10-30T16:33:48.762Z,89.82
2022-10-30T16:36:17.926Z,90.59
2022-10-30T16:38:47.459Z,90.38
2022-10-30T16:41:14.694Z,90.60
2022-10-30T16:43:44.557Z,91.46
2022-10-30T16:46:14.476Z,92.75
2022-10-30T16:48:54.682Z,92.92
2022-10-30T16:51:21.772Z,92.54
2022-10-30T16:53:50.442Z,93.04
2022-10-30T16:56:28.210Z,92.75
2022-10-30T16:59:12.749Z,93.53
2022-10-30T17:01:39.322Z,93.04
2022-10-30T17:04:05.918Z,92.99
2022-10-30T17:06:44.848Z,93.77
2022-10-30T17:09:28.590Z,94.35
2022-10-30T17:12:25.088Z,93.65
2022-10-30T17:15:14.007Z,92.67
2022-10-30T17:17:42.442Z,93.32
2022-10-30T17:20:22.748Z,93.95
2022-10-30T17:23:06.433Z,93.72
2022-10-30T17:25:37.905Z,93.40
2022-10-30T17:28:04.925Z,94.03
2022-10-30T17:30:43.125Z,93.06
2022-10-30T17:33:37.995Z,93.57
2022-10-30T17:36:06.014Z,93.04
2022-10-30T17:38:32.441Z,93.21
2022-10-30T17:41:00.065Z,93.47
2022-10-30T17:43:29.448Z,93.31
2022-10-30T17:45:56.746Z,93.67
2022-10-30T17:48:27.736Z,93.22
2022-10-30T17:50:54.828Z,94.07
2022-10-30T17:53:25.910Z,94.42
2022-10-30T17:56:15.478Z,93.35
2022-10-30T17:58:42.682Z,93.19
2022-10-30T18:01:17.115Z,92.82
2022-10-30T18:03:44.172Z,93.33
2022-10-30T18:06:19.169Z,93.33
2022-10-30T18:08:49.794Z,93.63
2022-10-30T18:11:20.042Z,93.70
2022-10-30T18:13:48.026Z,92.93
2022-10-30T18:16:16.862Z,93.14
2022-10-30T18:18:44.086Z,94.34
2022-10-30T18:21:15.725Z,94.54
2022-10-30T18:23:57.712Z,94.42
2022-10-30T18:26:26.678Z,94.29
2022-10-30T18:28:53.623Z,94.13
2022-10-30T18:31:22.498Z,94.38
2022-10-30T18:33:49.556Z,94.99
2022-10-30T18:36:18.669Z,95.11
2022-10-30T18:38:45.136Z,95.25
2022-10-30T18:41:15.863Z,94.81
2022-10-30T18:43:46.616Z,94.74
2022-10-30T18:46:14.827Z,94.90
2022-10-30T18:48:41.362Z,95.04
2022-10-30T18:51:17.019Z,95.16
2022-10-30T18:53:50.990Z,94.96
2022-10-30T18:56:29.585Z,96.24
2022-10-30T18:59:02.139Z,95.46
2022-10-30T19:01:31.600Z,94.43
2022-10-30T19:04:01.359Z,95.76
2022-10-30T19:06:28.097Z,94.95
2022-10-30T19:08:54.498Z,94.16
2022-10-30T19:11:24.635Z,94.13
2022-10-30T19:13:53.185Z,94.54
2022-10-30T19:16:20.278Z,94.83
2022-10-30T19:18:48.287Z,95.59
2022-10-30T19:21:17.297Z,95.32
2022-10-30T19:23:44.230Z,95.14
2022-10-30T19:28:43.958Z,95.33
2022-10-30T19:31:14.928Z,95.43
2022-10-30T19:33:41.863Z,96.08
2022-10-30T19:36:30.435Z,95.71
2022-10-30T19:38:56.877Z,95.34
2022-10-30T19:41:24.499Z,94.45
2022-10-30T19:43:51.554Z,94.25
2022-10-30T19:46:17.902Z,94.73
2022-10-30T19:49:00.652Z,94.97
2022-10-30T19:51:28.089Z,95.59
2022-10-30T19:53:54.937Z,95.44
2022-10-30T19:56:21.901Z,95.54
2022-10-30T19:58:48.568Z,95.19
2022-10-30T20:01:15.084Z,94.90
2022-10-30T20:03:42.107Z,95.56
2022-10-30T20:06:12.361Z,95.75
2022-10-30T20:08:38.966Z,96.18
2022-10-30T20:11:05.880Z,95.78
2022-10-30T20:13:33.333Z,96.26
2022-10-30T20:16:00.369Z,96.72
2022-10-30T20:18:31.843Z,97.10
2022-10-30T20:21:00.182Z,97.07
2022-10-30T20:23:27.309Z,96.19
2022-10-30T20:25:57.996Z,95.88
2022-10-30T20:28:28.466Z,95.34
2022-10-30T20:30:55.586Z,95.36
2022-10-30T20:33:23.475Z,95.54
2022-10-30T20:35:50.685Z,95.53
2022-10-30T20:38:22.516Z,96.00
2022-10-30T20:40:49.899Z,95.61
2022-10-30T20:43:18.725Z,95.89
2022-10-30T20:45:45.698Z,96.17
2022-10-30T20:48:13.230Z,96.12
2022-10-30T20:50:40.141Z,96.01
2022-10-30T20:53:07.154Z,96.76
2022-10-30T20:55:35.549Z,96.00
2022-10-30T20:58:03.019Z,95.78
2022-10-30T21:00:29.825Z,95.58
2022-10-30T21:02:56.190Z,95.92
2022-10-30T21:05:42.814Z,96.32
2022-10-30T21:08:09.276Z,96.02
2022-10-30T21:10:40.059Z,95.96
2022-10-30T21:13:09.015Z,95.57
2022-10-30T21:15:41.908Z,94.76
2022-10-30T21:18:09.483Z,97.30
2022-10-30T21:20:36.546Z,97.06
2022-10-30T21:23:03.376Z,97.10
2022-10-30T21:25:31.440Z,97.17
2022-10-30T21:27:58.243Z,96.09
2022-10-30T21:30:25.100Z,95.64
2022-10-30T21:32:51.518Z,95.22
2022-10-30T21:35:19.020Z,95.43
2022-10-30T21:37:45.396Z,96.49
2022-10-30T21:40:12.456Z,97.02
2022-10-30T21:42:39.285Z,97.56
2022-10-30T21:45:06.493Z,97.42
2022-10-30T21:47:32.815Z,96.91
2022-10-30T21:49:59.573Z,96.76
2022-10-30T21:52:25.975Z,96.33
2022-10-30T21:54:52.300Z,96.40
2022-10-30T21:57:19.030Z,95.36
2022-10-30T21:59:45.398Z,95.78
2022-10-30T22:02:15.336Z,96.03
2022-10-30T22:04:42.282Z,95.73
2022-10-30T22:07:09.131Z,96.03
2022-10-30T22:09:35.507Z,96.91
2022-10-30T22:12:02.243Z,96.26
2022-10-30T22:14:29.169Z,96.75
2022-10-30T22:16:55.536Z,96.88
2022-10-30T22:19:22.334Z,95.34
2022-10-30T22:21:49.099Z,94.98
2022-10-30T22:24:17.695Z,95.86
2022-10-30T22:26:44.210Z,96.34
2022-10-30T22:29:12.086Z,96.49
2022-10-30T22:31:38.401Z,96.91
2022-10-30T22:34:04.726Z,96.54
2022-10-30T22:36:33.620Z,96.66
2022-10-30T22:39:05.818Z,95.55
2022-10-30T22:41:37.450Z,96.07
2022-10-30T22:44:07.793Z,94.53
2022-10-30T22:46:35.701Z,95.19
2022-10-30T22:49:02.328Z,95.62
2022-10-30T22:51:32.049Z,95.99
2022-10-30T22:54:01.545Z,96.36
2022-10-30T22:56:31.164Z,95.68
2022-10-30T22:59:01.195Z,96.03
2022-10-30T23:01:30.298Z,95.83
2022-10-30T23:03:59.321Z,95.69
2022-10-30T23:06:27.210Z,95.29
2022-10-30T23:08:55.315Z,95.25
2022-10-30T23:11:21.870Z,94.71
2022-10-30T23:13:49.089Z,96.14
2022-10-30T23:16:20.649Z,96.17
2022-10-30T23:18:47.681Z,95.67
2022-10-30T23:21:17.653Z,95.93
2022-10-30T23:23:44.829Z,96.30
2022-10-30T23:26:14.725Z,96.33
2022-10-30T23:28:42.074Z,96.64
2022-10-30T23:31:17.843Z,96.77
2022-10-30T23:33:47.174Z,95.96
2022-10-30T23:36:13.477Z,96.19
2022-10-30T23:38:40.743Z,96.35
2022-10-30T23:41:07.123Z,96.05
2022-10-30T23:43:33.475Z,95.79
2022-10-30T23:46:00.140Z,95.42
2022-10-30T23:48:26.590Z,94.93
2022-10-30T23:50:53.445Z,96.12
2022-10-30T23:53:19.757Z,95.75
2022-10-30T23:55:51.153Z,95.46
2022-10-30T23:58:18.103Z,95.21
